This is the latest recevied weather packets stored in our database for station/object N8VDS-10. If no packets are shown the sender has not sent any weather packets the latest 10 day(s).
| Time | Temp. | Humidity | Pressure | Rain* | Wind** | Luminosity | Snow |
|---|---|---|---|---|---|---|---|
| 1777983558 | 10° C | 61% | 1007.7 hPa | 0 mm | - | 83 W/m² | - |
| 1777983255 | 10° C | 62% | 1007.8 hPa | 0 mm | - | 82 W/m² | - |
| 1777982950 | 9.44° C | 62% | 1007.5 hPa | 0 mm | - | 69 W/m² | - |
| 1777982647 | 9.44° C | 64% | 1007.8 hPa | 0 mm | - | 102 W/m² | - |
| 1777982346 | 9.44° C | 65% | 1007.5 hPa | 0 mm | - | 85 W/m² | - |
| 1777982043 | 9.44° C | 64% | 1007.5 hPa | 0 mm | - | 51 W/m² | - |
| 1777981741 | 10° C | 68% | 1007.5 hPa | 0 mm | - | 83 W/m² | - |
| 1777981437 | 10° C | 68% | 1007.4 hPa | 0 mm | - | 85 W/m² | - |
| 1777981133 | 9.44° C | 70% | 1007.4 hPa | 0 mm | - | 80 W/m² | - |
| 1777980830 | 9.44° C | 70% | 1007.5 hPa | 0 mm | - | 65 W/m² | - |
| 1777980526 | 9.44° C | 71% | 1007.3 hPa | 0 mm | - | 54 W/m² | - |
| 1777980224 | 9.44° C | 72% | 1007 hPa | 0 mm | - | 44 W/m² | - |
| 1777979919 | 9.44° C | 73% | 1007 hPa | 0 mm | - | 33 W/m² | - |
| 1777979614 | 10° C | 74% | 1006.9 hPa | 0 mm | - | 32 W/m² | - |
| 1777979311 | 9.44° C | 75% | 1006.6 hPa | 0 mm | - | 30 W/m² | - |
| 1777979008 | 9.44° C | 76% | 1006 hPa | 0 mm | - | 25 W/m² | - |
| 1777978705 | 9.44° C | 76% | 1006 hPa | 0 mm | - | 25 W/m² | - |
| 1777978401 | 10° C | 78% | 1005.9 hPa | 0 mm | - | 21 W/m² | - |
| 1777978097 | 10° C | 79% | 1005.9 hPa | 0 mm | - | 15 W/m² | - |
| 1777977795 | 10.56° C | 77% | 1006 hPa | 0 mm | - | 9 W/m² | - |
| 1777977491 | 11.11° C | 77% | 1005.5 hPa | 0 mm | - | 7 W/m² | - |
| 1777977189 | 13.33° C | 78% | 1005.7 hPa | 0 mm | - | 4 W/m² | - |
| 1777976886 | 13.33° C | 80% | 1005.3 hPa | 0 mm | - | 2 W/m² | - |
| 1777976584 | 13.33° C | 80% | 1005.4 hPa | 0 mm | - | 1 W/m² | - |
| 1777976283 | 13.33° C | 82% | 1005.1 hPa | 0 mm | - | 1 W/m² | - |
* Rain latest hour (hover to see other rain measurements)
** Current wind speed in m/s (hover to see current wind gust speed)